createdAt,value
2023-02-12T00:00:44.251Z,100145.59
2023-02-12T00:03:13.763Z,100147.36
2023-02-12T00:05:43.809Z,100148.27
2023-02-12T00:08:15.387Z,100151.34
2023-02-12T00:10:46.503Z,100157.11
2023-02-12T00:13:18.140Z,100161.11
2023-02-12T00:15:48.330Z,100164.38
2023-02-12T00:18:18.226Z,100164.27
2023-02-12T00:20:47.709Z,100170.41
2023-02-12T00:23:19.283Z,100177.25
2023-02-12T00:25:48.463Z,100177.46
2023-02-12T00:28:18.652Z,100179.80
2023-02-12T00:30:49.022Z,100182.73
2023-02-12T00:33:19.455Z,100188.59
2023-02-12T00:35:59.296Z,100195.44
2023-02-12T00:38:28.414Z,100191.56
2023-02-12T00:40:58.129Z,100194.39
2023-02-12T00:43:28.097Z,100202.28
2023-02-12T00:45:58.303Z,100198.39
2023-02-12T00:48:29.930Z,100204.88
2023-02-12T00:50:59.228Z,100207.09
2023-02-12T00:53:32.557Z,100210.03
2023-02-12T00:56:03.848Z,100212.95
2023-02-12T00:58:34.867Z,100211.96
2023-02-12T01:01:07.489Z,100213.43
2023-02-12T01:03:40.866Z,100218.99
2023-02-12T01:06:15.879Z,100230.11
2023-02-12T01:08:46.611Z,100240.52
2023-02-12T01:11:20.465Z,100236.20
2023-02-12T01:13:52.404Z,100243.77
2023-02-12T01:16:24.599Z,100250.59
2023-02-12T01:18:56.009Z,100252.71
2023-02-12T01:21:28.209Z,100255.73
2023-02-12T01:23:58.249Z,100259.02
2023-02-12T01:26:30.152Z,100257.36
2023-02-12T01:29:02.086Z,100262.19
2023-02-12T01:31:37.585Z,100272.01
2023-02-12T01:34:08.429Z,100275.16
2023-02-12T01:36:37.584Z,100280.59
2023-02-12T01:39:07.708Z,100284.21
2023-02-12T01:41:41.271Z,100294.48
2023-02-12T01:44:16.474Z,100304.47
2023-02-12T01:46:51.721Z,100304.92
2023-02-12T01:49:29.235Z,100310.27
2023-02-12T01:52:05.352Z,100308.19
2023-02-12T01:54:35.485Z,100317.91
2023-02-12T01:57:06.031Z,100328.63
2023-02-12T01:59:39.893Z,100333.02
2023-02-12T02:02:09.075Z,100340.57
2023-02-12T02:04:47.203Z,100346.73
2023-02-12T02:07:20.966Z,100359.38
2023-02-12T02:09:49.894Z,100361.84
2023-02-12T02:12:37.995Z,100363.13
2023-02-12T02:15:12.119Z,100373.30
2023-02-12T02:22:33.554Z,100389.11
2023-02-12T02:25:42.925Z,100396.40
2023-02-12T02:28:51.991Z,100408.20
2023-02-12T02:31:56.684Z,100417.34
2023-02-12T02:38:12.722Z,100442.02
2023-02-12T02:41:20.399Z,100451.77
2023-02-12T02:45:20.044Z,100460.98
2023-02-12T02:48:18.031Z,100475.09
2023-02-12T02:51:23.442Z,100487.65
2023-02-12T03:30:26.463Z,100607.93
2023-02-12T03:33:59.950Z,100615.86
2023-02-12T03:37:18.242Z,100623.13
2023-02-12T03:43:40.806Z,100648.59
2023-02-12T03:46:48.223Z,100667.23
2023-02-12T04:20:51.744Z,100760.02
2023-02-12T04:30:55.717Z,100779.00
2023-02-12T04:34:35.944Z,100781.73
2023-02-12T04:37:51.289Z,100791.88
2023-02-12T04:43:29.455Z,100805.23
2023-02-12T04:49:47.111Z,100813.60
2023-02-12T04:52:30.143Z,100821.89
2023-02-12T04:55:14.226Z,100825.95
2023-02-12T04:57:42.374Z,100824.08
2023-02-12T05:13:44.090Z,100862.27
2023-02-12T05:29:58.270Z,100902.15
2023-02-12T05:32:42.249Z,100907.55
2023-02-12T05:38:46.886Z,100919.47
2023-02-12T05:44:13.252Z,100931.94
2023-02-12T05:47:12.215Z,100941.23
2023-02-12T05:49:56.736Z,100941.54
2023-02-12T06:00:23.428Z,100959.92
2023-02-12T06:06:01.850Z,100973.96
2023-02-12T06:09:31.932Z,100981.35
2023-02-12T06:31:40.685Z,101018.81
2023-02-12T06:37:56.735Z,101023.12
2023-02-12T06:40:25.154Z,101028.43
2023-02-12T08:29:45.275Z,101152.84
2023-02-12T08:37:54.332Z,101179.23
2023-02-12T08:43:16.362Z,101175.90
2023-02-12T08:46:28.497Z,101182.98
2023-02-12T09:07:44.684Z,101212.55
2023-02-12T09:10:53.293Z,101207.55
2023-02-12T09:13:26.198Z,101208.27
2023-02-12T09:16:43.442Z,101204.93
2023-02-12T09:19:32.416Z,101208.77
2023-02-12T09:40:33.095Z,101236.16
2023-02-12T09:55:23.384Z,101210.56
2023-02-12T09:58:55.786Z,101212.90
2023-02-12T10:01:41.952Z,101214.60
2023-02-12T10:07:26.081Z,101213.96
2023-02-12T10:50:47.434Z,101249.48
2023-02-12T10:56:57.314Z,101247.91
2023-02-12T10:59:26.087Z,101253.05
2023-02-12T11:01:54.366Z,101261.48
2023-02-12T11:04:55.208Z,101264.75
2023-02-12T11:07:24.821Z,101279.62
2023-02-12T11:10:09.192Z,101280.86
2023-02-12T11:12:49.936Z,101287.04
2023-02-12T11:15:54.676Z,101295.48
2023-02-12T11:18:51.614Z,101287.81
2023-02-12T11:21:44.536Z,101287.98
2023-02-12T11:24:51.752Z,101286.76
2023-02-12T11:35:47.921Z,101271.12
2023-02-12T11:42:26.061Z,101279.40
2023-02-12T14:15:46.887Z,101404.42
2023-02-12T14:27:07.638Z,101410.77
2023-02-12T14:29:39.993Z,101420.82
2023-02-12T14:32:48.259Z,101411.48
2023-02-12T14:35:27.697Z,101411.44
2023-02-12T14:38:00.667Z,101413.79
2023-02-12T14:40:44.581Z,101420.39
2023-02-12T14:43:30.086Z,101427.48
2023-02-12T14:46:24.647Z,101437.06
2023-02-12T14:48:55.955Z,101437.50
2023-02-12T14:51:53.106Z,101441.17
2023-02-12T14:54:32.107Z,101451.52
2023-02-12T14:57:06.030Z,101453.76
2023-02-12T14:59:41.021Z,101458.71
2023-02-12T15:02:15.945Z,101455.48
2023-02-12T15:04:46.015Z,101459.42
2023-02-12T15:07:22.303Z,101463.70
2023-02-12T15:09:59.506Z,101466.55
2023-02-12T15:13:30.519Z,101470.34
2023-02-12T15:16:05.590Z,101472.68
2023-02-12T15:18:52.388Z,101475.13
2023-02-12T15:21:29.889Z,101479.64
2023-02-12T15:24:12.232Z,101486.92
2023-02-12T15:26:46.756Z,101493.90
2023-02-12T15:29:43.191Z,101493.58
2023-02-12T15:32:28.340Z,101495.34
2023-02-12T15:35:26.072Z,101495.73
2023-02-12T15:37:57.302Z,101503.74
2023-02-12T15:40:28.239Z,101509.51
2023-02-12T15:43:03.518Z,101515.39
2023-02-12T15:45:54.332Z,101520.09
2023-02-12T15:48:40.013Z,101527.18
2023-02-12T15:51:19.082Z,101525.85
2023-02-12T15:53:51.929Z,101532.72
2023-02-12T15:56:22.992Z,101532.65
2023-02-12T15:58:59.705Z,101525.21
2023-02-12T16:01:32.649Z,101526.41
2023-02-12T16:04:09.553Z,101525.11
2023-02-12T16:06:42.590Z,101529.56
2023-02-12T16:09:28.476Z,101526.41
2023-02-12T16:12:03.988Z,101526.16
2023-02-12T16:14:57.145Z,101532.95
2023-02-12T16:17:34.041Z,101536.72
2023-02-12T16:20:16.201Z,101538.63
2023-02-12T16:22:48.312Z,101543.11
2023-02-12T16:25:29.375Z,101543.73
2023-02-12T16:28:14.804Z,101549.28
2023-02-12T16:30:44.384Z,101550.73
2023-02-12T16:33:36.894Z,101556.27
2023-02-12T16:36:11.514Z,101558.53
2023-02-12T16:49:36.906Z,101561.51
2023-02-12T16:52:21.168Z,101561.96
2023-02-12T16:54:50.939Z,101568.30
2023-02-12T16:57:22.945Z,101567.05
2023-02-12T16:59:52.215Z,101570.73
2023-02-12T17:02:25.184Z,101570.38
2023-02-12T17:04:56.923Z,101565.97
2023-02-12T17:07:32.135Z,101568.03
2023-02-12T17:10:07.343Z,101569.02
2023-02-12T17:12:47.706Z,101573.33
2023-02-12T17:15:31.535Z,101574.16
2023-02-12T17:18:02.785Z,101585.54
2023-02-12T17:20:32.565Z,101593.11
2023-02-12T17:23:03.392Z,101600.88
2023-02-12T17:25:36.526Z,101614.26
2023-02-12T17:28:06.684Z,101614.25
2023-02-12T17:30:38.118Z,101613.14
2023-02-12T17:33:10.677Z,101616.05
2023-02-12T17:35:40.399Z,101620.10
2023-02-12T17:38:10.423Z,101617.23
2023-02-12T17:40:40.309Z,101622.65
2023-02-12T17:43:10.346Z,101619.44
2023-02-12T17:45:45.863Z,101620.71
2023-02-12T17:48:16.562Z,101615.14
2023-02-12T17:50:46.187Z,101619.88
2023-02-12T17:53:17.687Z,101613.79
2023-02-12T17:55:49.945Z,101615.70
2023-02-12T17:58:21.595Z,101617.66
2023-02-12T18:00:50.886Z,101620.00
2023-02-12T18:03:20.731Z,101622.42
2023-02-12T18:05:51.945Z,101616.24
2023-02-12T18:08:21.636Z,101617.58
2023-02-12T18:10:50.916Z,101619.90
2023-02-12T18:13:21.605Z,101620.52
2023-02-12T18:15:52.266Z,101629.11
2023-02-12T18:18:24.414Z,101634.19
2023-02-12T18:20:54.669Z,101640.23
2023-02-12T18:23:26.094Z,101650.20
2023-02-12T18:25:57.385Z,101654.72
2023-02-12T18:28:28.238Z,101660.29
2023-02-12T18:30:58.650Z,101660.91
2023-02-12T18:33:32.016Z,101662.09
2023-02-12T18:36:20.959Z,101664.99
2023-02-12T18:38:55.865Z,101666.25
2023-02-12T18:41:30.274Z,101667.45
2023-02-12T18:44:00.771Z,101676.89
2023-02-12T18:46:33.570Z,101674.02
2023-02-12T18:49:12.541Z,101670.50
2023-02-12T18:51:43.203Z,101669.60
2023-02-12T18:54:17.452Z,101671.13
2023-02-12T18:56:49.872Z,101675.31
2023-02-12T18:59:22.856Z,101674.34
2023-02-12T19:01:53.524Z,101673.44
2023-02-12T19:04:24.427Z,101672.40
2023-02-12T19:06:55.574Z,101672.62
2023-02-12T19:09:26.548Z,101668.69
2023-02-12T19:11:58.127Z,101667.27
2023-02-12T19:14:27.323Z,101663.73
2023-02-12T19:16:57.348Z,101665.52
2023-02-12T19:19:27.337Z,101659.23
2023-02-12T19:21:56.999Z,101660.61
2023-02-12T19:24:37.680Z,101663.02
2023-02-12T19:27:16.246Z,101669.45
2023-02-12T19:29:45.866Z,101670.54
2023-02-12T19:32:15.377Z,101668.88
2023-02-12T19:34:46.055Z,101667.95
2023-02-12T19:37:15.452Z,101661.67
2023-02-12T19:39:44.761Z,101662.64
2023-02-12T19:42:25.913Z,101655.48
2023-02-12T19:44:57.987Z,101654.38
2023-02-12T19:47:28.356Z,101648.75
2023-02-12T19:49:58.590Z,101643.01
2023-02-12T19:52:36.751Z,101633.80
2023-02-12T19:55:08.288Z,101634.41
2023-02-12T19:57:39.245Z,101628.83
2023-02-12T20:00:16.155Z,101630.50
2023-02-12T20:02:49.478Z,101629.81
2023-02-12T20:05:18.803Z,101626.25
2023-02-12T20:07:49.744Z,101623.82
2023-02-12T20:10:19.146Z,101623.70
2023-02-12T20:12:48.752Z,101629.84
2023-02-12T20:15:19.528Z,101633.45
2023-02-12T20:17:48.706Z,101634.52
2023-02-12T20:20:18.263Z,101635.27
2023-02-12T20:22:47.355Z,101633.40
2023-02-12T20:25:16.669Z,101632.60
2023-02-12T20:27:47.743Z,101628.89
2023-02-12T20:30:34.999Z,101629.91
2023-02-12T20:33:04.404Z,101625.77
2023-02-12T20:35:33.706Z,101629.61
2023-02-12T20:38:06.205Z,101633.73
2023-02-12T20:40:35.726Z,101636.70
2023-02-12T20:43:08.788Z,101642.58
2023-02-12T20:45:39.471Z,101643.64
2023-02-12T20:48:08.715Z,101642.77
2023-02-12T20:50:37.839Z,101646.43
2023-02-12T20:53:37.332Z,101649.48
2023-02-12T20:56:15.268Z,101656.50
2023-02-12T20:58:55.764Z,101654.59
2023-02-12T21:01:37.456Z,101648.96
2023-02-12T21:04:15.187Z,101648.66
2023-02-12T21:06:46.050Z,101647.30
2023-02-12T21:09:15.705Z,101650.08
2023-02-12T21:11:47.396Z,101649.67
2023-02-12T21:14:23.189Z,101648.18
2023-02-12T21:17:13.319Z,101652.15
2023-02-12T21:19:43.858Z,101653.08
2023-02-12T21:22:12.823Z,101651.93
2023-02-12T21:24:43.294Z,101650.84
2023-02-12T21:27:12.910Z,101650.63
2023-02-12T21:29:43.073Z,101653.02
2023-02-12T21:32:14.643Z,101656.91
2023-02-12T21:34:43.833Z,101660.63
2023-02-12T21:37:14.334Z,101663.31
2023-02-12T21:39:43.551Z,101663.58
2023-02-12T21:42:13.134Z,101667.42
2023-02-12T21:44:42.187Z,101666.54
2023-02-12T21:47:11.432Z,101664.77
2023-02-12T21:49:41.110Z,101665.92
2023-02-12T21:52:12.411Z,101667.85
2023-02-12T21:54:44.234Z,101668.29
2023-02-12T21:57:18.757Z,101666.17
2023-02-12T21:59:50.422Z,101664.48
2023-02-12T22:02:19.640Z,101660.20
2023-02-12T22:04:50.281Z,101654.08
2023-02-12T22:07:22.079Z,101640.80
2023-02-12T22:09:56.686Z,101641.10
2023-02-12T22:12:26.459Z,101640.83
2023-02-12T22:14:55.732Z,101642.15
2023-02-12T22:17:25.815Z,101641.29
2023-02-12T22:19:55.178Z,101642.40
2023-02-12T22:22:25.798Z,101647.86
2023-02-12T22:24:56.864Z,101647.83
2023-02-12T22:27:26.112Z,101646.00
2023-02-12T22:29:55.993Z,101651.26
2023-02-12T22:32:26.827Z,101655.70
2023-02-12T22:35:00.060Z,101658.02
2023-02-12T22:37:31.080Z,101664.88
2023-02-12T22:40:01.011Z,101670.85
2023-02-12T22:42:30.382Z,101677.55
2023-02-12T22:44:59.845Z,101671.67
2023-02-12T22:47:32.680Z,101670.81
2023-02-12T22:50:01.520Z,101665.92
2023-02-12T22:52:31.943Z,101661.97
2023-02-12T22:55:05.566Z,101661.46
2023-02-12T22:57:35.733Z,101660.94
2023-02-12T23:00:07.043Z,101658.19
2023-02-12T23:02:39.234Z,101663.84
2023-02-12T23:05:09.807Z,101660.11
2023-02-12T23:07:39.211Z,101651.97
2023-02-12T23:10:08.738Z,101647.77
2023-02-12T23:12:39.813Z,101638.13
2023-02-12T23:15:08.774Z,101633.74
2023-02-12T23:17:38.591Z,101635.56
2023-02-12T23:20:08.860Z,101643.02
2023-02-12T23:22:38.366Z,101639.31
2023-02-12T23:25:14.783Z,101641.39
2023-02-12T23:27:47.379Z,101642.61
2023-02-12T23:30:16.839Z,101639.17
2023-02-12T23:32:46.146Z,101636.41
2023-02-12T23:35:16.135Z,101635.65
2023-02-12T23:37:44.865Z,101639.72
2023-02-12T23:40:15.216Z,101640.39
2023-02-12T23:42:47.341Z,101636.09
2023-02-12T23:45:16.715Z,101632.21
